Time;durP1;ratioP1;P1;durP2;ratioP2;P2;SDS_P1;SDS_P2;PMS_P1;PMS_P2;Temp;Humidity;BMP_temperature;BMP_pressure;BME280_temperature;BME280_humidity;BME280_pressure;Samples;Min_cycle;Max_cycle;Signal;HPM_P1;HPM_P2
2021/03/03 00:01:45;;;;;;;13.45;7.30;;;;;;;;;;5085375;28;20032;-87
2021/03/03 00:04:12;;;;;;;10.82;7.18;;;;;;;;;;5083830;28;20068;-90
2021/03/03 00:06:38;;;;;;;14.60;7.65;;;;;;;;;;5083459;28;20032;-88
2021/03/03 00:09:04;;;;;;;12.68;7.30;;;;;;;;;;5083803;28;20024;-87
2021/03/03 00:11:30;;;;;;;13.57;6.95;;;;;;;;;;5083246;28;20042;-89
2021/03/03 00:13:56;;;;;;;9.45;6.03;;;;;;;;;;5084039;28;20534;-90
2021/03/03 00:16:22;;;;;;;10.05;6.85;;;;;;;;;;5083998;28;20061;-90
2021/03/03 00:18:48;;;;;;;9.38;6.57;;;;;;;;;;5101671;28;20089;-92
2021/03/03 00:21:14;;;;;;;11.50;7.13;;;;;;;;;;5084365;28;20085;-88
2021/03/03 00:23:41;;;;;;;12.35;7.50;;;;;;;;;;5101315;28;20028;-91
2021/03/03 00:26:07;;;;;;;10.20;7.25;;;;;;;;;;5083386;28;20031;-88
2021/03/03 00:28:33;;;;;;;10.38;6.57;;;;;;;;;;5093635;28;20028;-90
2021/03/03 00:30:59;;;;;;;11.38;7.18;;;;;;;;;;5083955;28;20035;-89
2021/03/03 00:33:25;;;;;;;13.45;7.22;;;;;;;;;;5083271;28;20028;-89
2021/03/03 00:35:51;;;;;;;12.98;7.20;;;;;;;;;;5083723;28;20173;-89
2021/03/03 00:38:17;;;;;;;11.07;6.88;;;;;;;;;;5083231;28;20114;-90
2021/03/03 00:40:43;;;;;;;9.93;6.82;;;;;;;;;;5082814;28;20043;-88
2021/03/03 00:43:09;;;;;;;10.93;6.72;;;;;;;;;;5082945;28;20032;-91
2021/03/03 00:45:36;;;;;;;9.52;6.57;;;;;;;;;;5083414;28;20205;-90
2021/03/03 00:48:02;;;;;;;11.35;6.95;;;;;;;;;;5083818;28;20081;-89
2021/03/03 00:50:28;;;;;;;11.85;6.22;;;;;;;;;;5083043;28;20346;-92
2021/03/03 00:52:54;;;;;;;11.18;6.95;;;;;;;;;;5083561;28;20031;-90
2021/03/03 00:55:20;;;;;;;11.70;7.13;;;;;;;;;;5101038;28;20351;-87
2021/03/03 00:57:46;;;;;;;10.07;6.53;;;;;;;;;;5101730;28;20020;-93
2021/03/03 01:00:12;;;;;;;9.93;5.97;;;;;;;;;;5081443;28;20028;-90
2021/03/03 01:02:38;;;;;;;9.45;6.18;;;;;;;;;;5082266;28;20332;-88
2021/03/03 01:05:05;;;;;;;9.18;6.18;;;;;;;;;;5086387;28;20024;-88
2021/03/03 01:07:31;;;;;;;11.13;6.45;;;;;;;;;;5082848;28;20032;-88
2021/03/03 01:09:57;;;;;;;12.32;6.40;;;;;;;;;;5082695;28;20347;-88
2021/03/03 01:12:23;;;;;;;12.30;7.05;;;;;;;;;;5082600;28;20351;-89
2021/03/03 01:14:49;;;;;;;10.73;7.30;;;;;;;;;;5082468;28;20035;-89
2021/03/03 01:17:16;;;;;;;9.77;6.47;;;;;;;;;;5083090;28;20028;-88
2021/03/03 01:19:42;;;;;;;10.10;6.05;;;;;;;;;;5083035;28;20027;-89
2021/03/03 01:22:08;;;;;;;11.38;6.20;;;;;;;;;;5083481;28;20051;-88
2021/03/03 01:24:34;;;;;;;9.80;6.03;;;;;;;;;;5100783;28;20119;-90
2021/03/03 01:27:02;;;;;;;10.80;6.85;;;;;;;;;;5084146;28;20031;-89
2021/03/03 01:29:28;;;;;;;10.02;6.25;;;;;;;;;;5085844;28;20032;-89
2021/03/03 01:31:54;;;;;;;13.15;7.15;;;;;;;;;;5087034;28;20150;-88
2021/03/03 01:34:20;;;;;;;9.68;6.57;;;;;;;;;;5091699;28;20059;-86
2021/03/03 01:36:46;;;;;;;10.13;5.82;;;;;;;;;;5092118;28;20039;-88
2021/03/03 01:39:12;;;;;;;9.00;6.20;;;;;;;;;;5092602;28;20036;-84
2021/03/03 01:41:39;;;;;;;10.70;6.85;;;;;;;;;;5106791;28;20063;-88
2021/03/03 01:44:05;;;;;;;12.07;7.18;;;;;;;;;;5089177;28;20032;-86
2021/03/03 01:46:31;;;;;;;10.65;6.50;;;;;;;;;;5089861;28;20036;-88
2021/03/03 01:48:57;;;;;;;10.27;6.25;;;;;;;;;;5087313;28;20028;-88
2021/03/03 01:51:23;;;;;;;15.32;7.03;;;;;;;;;;5107077;28;20067;-88
2021/03/03 01:53:49;;;;;;;9.85;6.32;;;;;;;;;;5109598;28;20039;-85
2021/03/03 01:56:15;;;;;;;13.25;7.85;;;;;;;;;;5106248;28;20370;-91
2021/03/03 01:58:41;;;;;;;11.30;6.68;;;;;;;;;;5084679;28;20039;-88
2021/03/03 02:01:07;;;;;;;9.30;6.05;;;;;;;;;;5084345;28;20042;-91
2021/03/03 02:03:37;;;;;;;11.30;7.10;;;;;;;;;;5083601;28;20032;-88
2021/03/03 02:06:16;;;;;;;9.07;6.35;;;;;;;;;;5082645;28;20028;-89
2021/03/03 02:08:45;;;;;;;13.50;6.53;;;;;;;;;;5100837;28;20065;-87
2021/03/03 02:11:11;;;;;;;;;;;;;;;;;;5084129;28;20062;-87
2021/03/03 02:13:41;;;;;;;9.65;6.03;;;;;;;;;;5099479;28;19920;-89
2021/03/03 02:16:08;;;;;;;9.15;6.13;;;;;;;;;;5082524;28;20074;-91
2021/03/03 02:18:36;;;;;;;10.93;6.00;;;;;;;;;;5082091;28;20040;-90
2021/03/03 02:21:22;;;;;;;9.10;5.70;;;;;;;;;;5081729;28;20032;-87
2021/03/03 02:23:51;;;;;;;13.57;6.63;;;;;;;;;;5081926;28;20043;-88
2021/03/03 02:26:22;;;;;;;10.35;6.43;;;;;;;;;;5081620;28;20434;-90
2021/03/03 02:28:48;;;;;;;11.50;6.45;;;;;;;;;;5081562;28;20047;-90
2021/03/03 02:31:15;;;;;;;11.07;6.68;;;;;;;;;;5099711;28;20024;-87
2021/03/03 02:33:45;;;;;;;9.88;6.35;;;;;;;;;;5081388;28;20063;-86
2021/03/03 02:36:12;;;;;;;10.77;6.25;;;;;;;;;;5080993;28;20058;-88
2021/03/03 02:38:42;;;;;;;9.48;6.13;;;;;;;;;;5081304;28;20024;-89
2021/03/03 02:41:15;;;;;;;8.13;5.78;;;;;;;;;;5080629;28;20055;-88
2021/03/03 02:43:42;;;;;;;9.80;6.18;;;;;;;;;;5080409;28;20275;-92
2021/03/03 02:46:09;;;;;;;13.68;6.45;;;;;;;;;;5079852;28;20385;-90
2021/03/03 02:48:36;;;;;;;8.60;6.20;;;;;;;;;;5098177;28;20355;-91
2021/03/03 02:51:02;;;;;;;9.73;5.55;;;;;;;;;;5080795;28;20028;-89
2021/03/03 02:53:28;;;;;;;9.27;7.18;;;;;;;;;;5080839;28;20047;-89
2021/03/03 02:55:54;;;;;;;12.45;6.65;;;;;;;;;;5097936;28;20024;-92
2021/03/03 02:58:21;;;;;;;11.45;6.88;;;;;;;;;;5097812;28;20070;-91
2021/03/03 03:01:17;;;;;;;13.05;6.90;;;;;;;;;;5080473;28;20028;-89
2021/03/03 03:03:49;;;;;;;11.73;6.00;;;;;;;;;;5098152;28;20061;-91
2021/03/03 03:06:19;;;;;;;9.48;6.22;;;;;;;;;;5080037;28;20028;-89
2021/03/03 03:08:47;;;;;;;8.45;5.90;;;;;;;;;;5097797;28;20081;-91
2021/03/03 03:11:17;;;;;;;9.30;6.25;;;;;;;;;;5079813;28;20056;-89
2021/03/03 03:13:44;;;;;;;11.35;6.22;;;;;;;;;;5080441;28;20032;-89
2021/03/03 03:16:11;;;;;;;10.55;6.97;;;;;;;;;;5080014;28;20032;-90
2021/03/03 03:18:41;;;;;;;10.27;6.15;;;;;;;;;;5079836;28;20036;-90
2021/03/03 03:21:08;;;;;;;11.75;6.18;;;;;;;;;;5096741;28;20036;-89
2021/03/03 03:23:35;;;;;;;8.82;5.75;;;;;;;;;;5098198;28;20034;-92
2021/03/03 03:26:02;;;;;;;14.07;6.85;;;;;;;;;;5082265;28;20020;-90
2021/03/03 03:28:28;;;;;;;8.13;5.15;;;;;;;;;;5082307;28;20024;-91
2021/03/03 03:30:55;;;;;;;6.50;5.10;;;;;;;;;;5099930;28;20123;-89
2021/03/03 03:33:21;;;;;;;9.25;6.07;;;;;;;;;;5080424;28;20028;-87
2021/03/03 03:35:48;;;;;;;11.25;6.45;;;;;;;;;;5099067;28;20063;-91
2021/03/03 03:38:14;;;;;;;12.00;7.30;;;;;;;;;;5078811;28;20158;-90
2021/03/03 03:40:41;;;;;;;12.52;7.53;;;;;;;;;;5077722;28;20036;-87
2021/03/03 03:43:09;;;;;;;9.25;6.75;;;;;;;;;;5094944;28;20063;-89
2021/03/03 03:45:36;;;;;;;9.60;6.20;;;;;;;;;;5099297;28;20031;-88
2021/03/03 03:48:02;;;;;;;10.00;6.95;;;;;;;;;;5099047;28;20024;-89
2021/03/03 03:50:28;;;;;;;9.27;5.65;;;;;;;;;;5099324;28;20033;-89
2021/03/03 03:52:56;;;;;;;9.00;6.20;;;;;;;;;;5099433;28;20028;-90
2021/03/03 03:55:35;;;;;;;8.43;5.80;;;;;;;;;;5099195;28;20077;-89
2021/03/03 03:58:02;;;;;;;10.30;5.93;;;;;;;;;;5098935;28;20039;-89
2021/03/03 04:00:29;;;;;;;10.45;6.13;;;;;;;;;;5080703;28;20072;-89
2021/03/03 04:02:55;;;;;;;11.32;6.43;;;;;;;;;;5098963;28;20028;-94
2021/03/03 04:05:21;;;;;;;8.75;5.70;;;;;;;;;;5082109;28;20032;-89
2021/03/03 04:07:47;;;;;;;11.27;6.40;;;;;;;;;;5081562;28;20074;-90
2021/03/03 04:10:17;;;;;;;7.50;5.22;;;;;;;;;;5081747;28;20340;-90
2021/03/03 04:12:43;;;;;;;12.20;7.25;;;;;;;;;;5081953;28;20331;-88
2021/03/03 04:15:10;;;;;;;8.77;6.20;;;;;;;;;;5099038;28;20099;-90
2021/03/03 04:17:37;;;;;;;8.98;6.13;;;;;;;;;;5081413;28;20024;-90
2021/03/03 04:20:04;;;;;;;11.05;6.63;;;;;;;;;;5081693;28;20036;-92
2021/03/03 04:22:30;;;;;;;10.13;5.97;;;;;;;;;;5081588;28;20071;-89
2021/03/03 04:24:56;;;;;;;13.18;6.70;;;;;;;;;;5081873;28;20035;-91
2021/03/03 04:27:22;;;;;;;8.10;6.05;;;;;;;;;;5099772;28;20393;-89
2021/03/03 04:29:48;;;;;;;10.15;6.38;;;;;;;;;;5081943;28;20024;-93
2021/03/03 04:32:14;;;;;;;11.43;6.88;;;;;;;;;;5082217;28;20027;-89
2021/03/03 04:34:40;;;;;;;12.80;5.75;;;;;;;;;;5080832;28;20024;-91
2021/03/03 04:37:06;;;;;;;9.38;5.63;;;;;;;;;;5098888;28;20031;-87
2021/03/03 04:39:32;;;;;;;9.60;6.55;;;;;;;;;;5099400;28;20032;-92
2021/03/03 04:41:58;;;;;;;13.98;5.95;;;;;;;;;;5099095;28;20047;-89
2021/03/03 04:44:25;;;;;;;7.82;5.93;;;;;;;;;;5099866;28;20053;-92
2021/03/03 04:46:51;;;;;;;8.55;5.53;;;;;;;;;;5081668;28;20333;-89
2021/03/03 04:49:17;;;;;;;9.70;6.10;;;;;;;;;;5081248;28;20027;-92
2021/03/03 04:51:43;;;;;;;10.02;6.50;;;;;;;;;;5081410;28;20024;-90
2021/03/03 04:54:09;;;;;;;8.70;5.47;;;;;;;;;;5081656;28;20028;-88
2021/03/03 04:56:35;;;;;;;9.02;5.93;;;;;;;;;;5099532;28;20035;-91
2021/03/03 04:59:01;;;;;;;8.52;6.10;;;;;;;;;;5094336;28;20020;-90
2021/03/03 05:01:27;;;;;;;6.60;5.32;;;;;;;;;;5094147;28;20047;-91
2021/03/03 05:03:53;;;;;;;10.43;6.25;;;;;;;;;;5080588;28;20028;-91
2021/03/03 05:06:19;;;;;;;8.68;5.65;;;;;;;;;;5081212;28;20035;-93
2021/03/03 05:08:45;;;;;;;9.00;5.82;;;;;;;;;;5080187;28;20029;-90
2021/03/03 05:11:12;;;;;;;9.23;5.85;;;;;;;;;;5067510;28;20423;-92
2021/03/03 05:13:38;;;;;;;7.57;5.57;;;;;;;;;;5086415;28;20457;-89
2021/03/03 05:16:04;;;;;;;7.05;4.70;;;;;;;;;;5078053;28;20032;-91
2021/03/03 05:18:30;;;;;;;7.57;5.40;;;;;;;;;;5086170;28;20507;-90
2021/03/03 05:20:56;;;;;;;10.32;5.68;;;;;;;;;;5066870;28;20040;-92
2021/03/03 05:23:28;;;;;;;8.00;5.47;;;;;;;;;;5079824;28;20036;-93
2021/03/03 05:25:54;;;;;;;8.40;5.30;;;;;;;;;;5080541;28;20035;-90
2021/03/03 05:28:20;;;;;;;8.68;5.63;;;;;;;;;;5079558;28;20032;-90
2021/03/03 05:30:46;;;;;;;9.32;5.97;;;;;;;;;;5079370;28;20024;-90
2021/03/03 05:33:12;;;;;;;10.93;6.32;;;;;;;;;;5079258;28;20024;-90
2021/03/03 05:35:38;;;;;;;12.00;5.35;;;;;;;;;;5079469;28;20059;-90
2021/03/03 05:38:04;;;;;;;10.77;5.53;;;;;;;;;;5097184;28;20024;-88
2021/03/03 05:40:31;;;;;;;9.45;5.30;;;;;;;;;;5095379;28;20034;-90
2021/03/03 05:42:57;;;;;;;9.05;5.93;;;;;;;;;;5079322;28;20047;-90
2021/03/03 05:45:23;;;;;;;8.52;6.05;;;;;;;;;;5079949;28;20032;-90
2021/03/03 05:47:49;;;;;;;8.93;5.97;;;;;;;;;;5091168;28;20131;-91
2021/03/03 05:50:17;;;;;;;9.63;6.88;;;;;;;;;;5077381;28;20024;-90
2021/03/03 05:52:43;;;;;;;13.02;6.43;;;;;;;;;;5077177;28;20027;-90
2021/03/03 05:55:10;;;;;;;9.75;6.70;;;;;;;;;;5095305;28;20032;-89
2021/03/03 05:57:37;;;;;;;9.30;5.68;;;;;;;;;;5090439;28;20032;-89
2021/03/03 06:00:06;;;;;;;8.90;5.90;;;;;;;;;;5090232;28;20074;-89
2021/03/03 06:02:37;;;;;;;8.35;5.53;;;;;;;;;;5080972;28;20040;-89
2021/03/03 06:05:03;;;;;;;10.15;6.30;;;;;;;;;;5078694;28;20050;-89
2021/03/03 06:07:29;;;;;;;9.80;6.45;;;;;;;;;;5071677;28;20028;-90
2021/03/03 06:09:55;;;;;;;7.88;5.57;;;;;;;;;;5091211;28;20073;-89
2021/03/03 06:12:22;;;;;;;8.85;5.28;;;;;;;;;;5097042;28;20032;-91
2021/03/03 06:14:48;;;;;;;9.15;6.30;;;;;;;;;;5079294;28;20020;-91
2021/03/03 06:17:14;;;;;;;7.82;5.32;;;;;;;;;;5076147;28;20024;-91
2021/03/03 06:19:41;;;;;;;8.45;5.40;;;;;;;;;;5081458;28;20035;-89
2021/03/03 06:22:23;;;;;;;10.45;6.32;;;;;;;;;;5092715;28;20459;-89
2021/03/03 06:24:50;;;;;;;8.70;5.88;;;;;;;;;;5093193;28;20336;-89
2021/03/03 06:27:16;;;;;;;9.43;5.85;;;;;;;;;;5077400;28;20030;-91
2021/03/03 06:30:00;;;;;;;10.65;5.45;;;;;;;;;;5092629;28;20310;-91
2021/03/03 06:32:26;;;;;;;7.80;5.28;;;;;;;;;;5073980;28;20058;-88
2021/03/03 06:34:52;;;;;;;9.60;6.03;;;;;;;;;;5076815;28;20039;-86
2021/03/03 06:37:18;;;;;;;10.52;6.47;;;;;;;;;;5082310;28;20024;-91
2021/03/03 06:39:44;;;;;;;10.27;5.55;;;;;;;;;;5081256;28;20139;-90
2021/03/03 06:42:11;;;;;;;7.93;5.85;;;;;;;;;;5088676;28;20036;-88
2021/03/03 06:44:48;;;;;;;9.25;6.05;;;;;;;;;;5100869;28;20073;-90
2021/03/03 06:47:18;;;;;;;7.30;5.18;;;;;;;;;;5082240;28;20028;-89
2021/03/03 06:49:45;;;;;;;11.88;6.63;;;;;;;;;;5088726;28;20085;-89
2021/03/03 06:52:11;;;;;;;8.82;5.22;;;;;;;;;;5098630;28;20028;-91
2021/03/03 06:54:38;;;;;;;9.18;5.28;;;;;;;;;;5083237;28;20032;-91
2021/03/03 06:57:05;;;;;;;9.93;5.32;;;;;;;;;;5078040;28;20046;-90
2021/03/03 06:59:34;;;;;;;7.88;5.70;;;;;;;;;;5097507;28;20054;-90
2021/03/03 07:02:00;;;;;;;;;;;;;;;;;;5091975;28;20036;-90
2021/03/03 07:04:28;;;;;;;9.63;5.13;;;;;;;;;;5112958;28;20013;-88
2021/03/03 07:06:55;;;;;;;10.70;5.57;;;;;;;;;;5098990;28;20203;-90
2021/03/03 07:09:22;;;;;;;7.93;6.00;;;;;;;;;;5084952;28;20028;-91
2021/03/03 07:11:50;;;;;;;9.43;5.80;;;;;;;;;;5083869;28;20028;-90
2021/03/03 07:14:23;;;;;;;11.27;5.88;;;;;;;;;;5084707;28;20055;-90
2021/03/03 07:17:08;;;;;;;11.80;5.85;;;;;;;;;;5103061;28;20067;-90
2021/03/03 07:19:35;;;;;;;11.77;5.40;;;;;;;;;;5108194;28;20077;-91
2021/03/03 07:22:02;;;;;;;8.73;5.78;;;;;;;;;;5096635;28;20031;-88
2021/03/03 07:24:31;;;;;;;10.10;5.97;;;;;;;;;;5101942;28;20039;-90
2021/03/03 07:27:00;;;;;;;8.90;5.50;;;;;;;;;;5092769;28;20023;-89
2021/03/03 07:29:26;;;;;;;10.50;5.63;;;;;;;;;;5102437;28;20036;-88
2021/03/03 07:31:53;;;;;;;10.38;6.25;;;;;;;;;;5081402;28;20070;-90
2021/03/03 07:34:20;;;;;;;9.27;5.95;;;;;;;;;;5079414;28;20085;-88
2021/03/03 07:36:49;;;;;;;11.55;6.00;;;;;;;;;;5094297;28;20031;-91
2021/03/03 07:39:15;;;;;;;9.43;5.93;;;;;;;;;;5074043;28;20020;-91
2021/03/03 07:41:43;;;;;;;9.40;6.35;;;;;;;;;;5088031;28;20126;-90
2021/03/03 07:44:16;;;;;;;7.22;5.43;;;;;;;;;;5088036;28;20035;-87
2021/03/03 07:46:43;;;;;;;9.05;6.03;;;;;;;;;;5100505;28;20118;-88
2021/03/03 07:49:15;;;;;;;9.60;5.95;;;;;;;;;;5108212;28;20106;-88
2021/03/03 07:51:41;;;;;;;10.88;6.22;;;;;;;;;;5087309;28;20019;-89
2021/03/03 07:54:21;;;;;;;10.45;6.45;;;;;;;;;;5087334;28;20034;-88
2021/03/03 07:56:47;;;;;;;10.57;6.68;;;;;;;;;;5089148;28;20037;-88
2021/03/03 07:59:14;;;;;;;8.10;5.80;;;;;;;;;;5086785;28;20020;-89
2021/03/03 08:01:40;;;;;;;9.73;6.00;;;;;;;;;;5086599;28;20127;-87
2021/03/03 08:04:09;;;;;;;11.63;6.93;;;;;;;;;;5090306;28;20039;-91
2021/03/03 08:06:39;;;;;;;7.15;5.75;;;;;;;;;;5104844;28;20024;-89
2021/03/03 08:09:05;;;;;;;12.65;6.80;;;;;;;;;;5116596;27;20012;-90
2021/03/03 08:11:32;;;;;;;11.30;6.20;;;;;;;;;;5097268;28;20050;-89
2021/03/03 08:13:58;;;;;;;13.48;6.75;;;;;;;;;;5110438;28;20035;-89
2021/03/03 08:16:24;;;;;;;13.60;7.20;;;;;;;;;;5102303;27;20083;-90
2021/03/03 08:18:51;;;;;;;11.25;6.78;;;;;;;;;;5123750;27;20012;-89
2021/03/03 08:21:18;;;;;;;9.00;6.63;;;;;;;;;;5133469;27;20023;-89
2021/03/03 08:23:44;;;;;;;9.48;6.90;;;;;;;;;;5116248;28;20016;-89
2021/03/03 08:26:31;;;;;;;11.50;6.80;;;;;;;;;;5109133;28;20032;-86
2021/03/03 08:29:12;;;;;;;15.02;7.38;;;;;;;;;;5101120;28;20024;-89
2021/03/03 08:31:39;;;;;;;11.32;6.57;;;;;;;;;;5128594;28;20035;-89
2021/03/03 08:34:07;;;;;;;14.30;6.82;;;;;;;;;;5096764;28;20073;-89
2021/03/03 08:36:34;;;;;;;10.45;6.53;;;;;;;;;;5078237;28;20092;-86
2021/03/03 08:39:01;;;;;;;12.85;7.30;;;;;;;;;;5090576;28;20027;-87
2021/03/03 08:41:28;;;;;;;14.27;7.05;;;;;;;;;;5110701;28;20058;-86
2021/03/03 08:44:02;;;;;;;12.68;7.60;;;;;;;;;;5098283;28;20402;-87
2021/03/03 08:46:28;;;;;;;12.00;7.28;;;;;;;;;;5102649;28;20032;-85
2021/03/03 08:48:57;;;;;;;17.13;7.88;;;;;;;;;;5084868;28;20039;-86
2021/03/03 08:51:24;;;;;;;18.33;8.80;;;;;;;;;;5084284;28;20035;-85
2021/03/03 08:53:54;;;;;;;12.18;8.25;;;;;;;;;;5082632;28;20032;-87
2021/03/03 08:56:42;;;;;;;11.80;6.95;;;;;;;;;;5101491;28;20040;-86
2021/03/03 08:59:12;;;;;;;20.88;9.13;;;;;;;;;;5085531;28;20024;-87
2021/03/03 09:01:56;;;;;;;18.27;9.35;;;;;;;;;;5099511;28;20314;-90
2021/03/03 09:04:35;;;;;;;19.58;10.65;;;;;;;;;;5096598;28;20079;-90
2021/03/03 09:07:01;;;;;;;20.50;10.73;;;;;;;;;;5094808;28;20054;-90
2021/03/03 09:09:27;;;;;;;20.65;11.32;;;;;;;;;;5099211;28;20047;-89
2021/03/03 09:11:58;;;;;;;18.20;10.65;;;;;;;;;;5081219;28;20073;-88
2021/03/03 09:14:24;;;;;;;16.05;11.15;;;;;;;;;;5091936;28;20031;-87
2021/03/03 09:16:54;;;;;;;19.65;11.80;;;;;;;;;;5080314;28;20059;-88
2021/03/03 09:19:20;;;;;;;21.27;11.38;;;;;;;;;;5082518;28;20119;-94
2021/03/03 09:21:47;;;;;;;27.10;12.00;;;;;;;;;;5096793;28;20146;-87
2021/03/03 09:24:14;;;;;;;26.50;12.73;;;;;;;;;;5080667;28;20027;-89
2021/03/03 09:26:43;;;;;;;20.70;12.60;;;;;;;;;;5091075;28;20087;-88
2021/03/03 09:29:23;;;;;;;27.02;12.82;;;;;;;;;;5074640;28;20035;-88
2021/03/03 09:31:49;;;;;;;24.55;12.80;;;;;;;;;;5097881;28;20098;-91
2021/03/03 09:34:19;;;;;;;24.88;12.82;;;;;;;;;;5099890;28;20035;-87
2021/03/03 09:36:45;;;;;;;;;;;;;;;;;;5097124;28;20046;-87
2021/03/03 09:39:11;;;;;;;29.38;13.95;;;;;;;;;;5092489;28;19917;-89
2021/03/03 09:41:37;;;;;;;21.65;12.02;;;;;;;;;;5084006;28;20040;-86
2021/03/03 09:44:05;;;;;;;24.25;13.27;;;;;;;;;;5097218;28;20364;-90
2021/03/03 09:46:50;;;;;;;33.45;14.98;;;;;;;;;;5081996;28;20024;-84
2021/03/03 09:49:26;;;;;;;23.15;12.40;;;;;;;;;;5080067;28;20097;-85
2021/03/03 09:51:53;;;;;;;28.77;14.07;;;;;;;;;;5101657;28;20057;-86
2021/03/03 09:54:45;;;;;;;32.20;14.27;;;;;;;;;;5080116;28;20053;-86
2021/03/03 09:57:13;;;;;;;33.28;14.93;;;;;;;;;;5093996;28;20036;-88
2021/03/03 09:59:43;;;;;;;29.25;14.48;;;;;;;;;;5083839;28;20348;-88
2021/03/03 10:02:11;;;;;;;30.50;14.57;;;;;;;;;;5078496;28;20218;-88
2021/03/03 10:04:38;;;;;;;26.17;14.07;;;;;;;;;;5093629;28;20023;-86
2021/03/03 10:07:31;;;;;;;30.48;14.68;;;;;;;;;;5082011;28;20023;-88
2021/03/03 10:09:58;;;;;;;27.65;14.15;;;;;;;;;;5076243;28;20039;-88
2021/03/03 10:12:25;;;;;;;32.08;15.52;;;;;;;;;;5078959;28;20415;-86
2021/03/03 10:14:55;;;;;;;21.52;13.80;;;;;;;;;;5088750;28;20399;-87
2021/03/03 10:17:31;;;;;;;30.40;14.23;;;;;;;;;;5084166;28;20036;-86
2021/03/03 10:19:58;;;;;;;25.40;13.85;;;;;;;;;;5084414;28;20131;-87
2021/03/03 10:22:24;;;;;;;30.08;14.35;;;;;;;;;;5088400;28;20447;-86
2021/03/03 10:25:01;;;;;;;28.13;15.85;;;;;;;;;;5095744;28;20116;-87
2021/03/03 10:27:29;;;;;;;30.95;15.57;;;;;;;;;;5097590;28;20031;-85
2021/03/03 10:29:55;;;;;;;36.35;14.82;;;;;;;;;;5080177;28;20020;-86
2021/03/03 10:32:22;;;;;;;26.83;14.95;;;;;;;;;;5094858;28;20024;-88
2021/03/03 10:34:48;;;;;;;29.35;15.25;;;;;;;;;;5103057;28;20024;-86
2021/03/03 10:37:24;;;;;;;30.63;17.52;;;;;;;;;;5099324;28;20095;-86
2021/03/03 10:39:51;;;;;;;28.45;15.75;;;;;;;;;;5099747;28;20035;-88
2021/03/03 10:42:21;;;;;;;34.78;16.42;;;;;;;;;;5099776;28;20071;-88
2021/03/03 10:44:52;;;;;;;34.78;15.77;;;;;;;;;;5098495;28;20086;-89
2021/03/03 10:47:38;;;;;;;30.05;16.63;;;;;;;;;;5081648;28;20071;-88
2021/03/03 10:50:05;;;;;;;29.58;16.73;;;;;;;;;;5101398;28;20027;-88
2021/03/03 10:52:31;;;;;;;33.20;17.27;;;;;;;;;;5082749;28;20031;-87
2021/03/03 10:54:57;;;;;;;42.90;17.27;;;;;;;;;;5101214;28;20030;-87
2021/03/03 10:57:23;;;;;;;39.17;19.80;;;;;;;;;;5101164;28;20351;-87
2021/03/03 11:00:00;;;;;;;33.03;16.73;;;;;;;;;;5083216;28;20135;-88
2021/03/03 11:02:26;;;;;;;37.15;17.20;;;;;;;;;;5098639;28;20040;-85
2021/03/03 11:04:53;;;;;;;33.97;16.73;;;;;;;;;;5097110;28;20052;-87
2021/03/03 11:07:19;;;;;;;34.13;18.77;;;;;;;;;;5094143;28;20257;-87
2021/03/03 11:09:50;;;;;;;39.35;19.17;;;;;;;;;;5102100;28;20036;-88
2021/03/03 11:12:21;;;;;;;32.03;18.42;;;;;;;;;;5081169;28;20028;-87
2021/03/03 11:14:47;;;;;;;32.85;17.20;;;;;;;;;;5085774;28;20046;-87
2021/03/03 11:17:13;;;;;;;33.92;17.95;;;;;;;;;;5100859;28;20058;-86
2021/03/03 11:19:39;;;;;;;33.88;18.42;;;;;;;;;;5092123;28;20028;-88
2021/03/03 11:22:06;;;;;;;40.22;17.92;;;;;;;;;;5109887;28;20042;-87
2021/03/03 11:24:32;;;;;;;39.05;19.98;;;;;;;;;;5086536;28;20049;-89
2021/03/03 11:26:58;;;;;;;37.03;18.55;;;;;;;;;;5101826;28;20020;-88
2021/03/03 11:29:24;;;;;;;32.88;15.95;;;;;;;;;;5097636;28;20028;-89
2021/03/03 11:31:50;;;;;;;27.27;17.27;;;;;;;;;;5100143;28;20129;-86
2021/03/03 11:34:20;;;;;;;30.60;17.65;;;;;;;;;;5099675;28;20020;-90
2021/03/03 11:36:46;;;;;;;32.42;18.90;;;;;;;;;;5101664;28;20131;-85
2021/03/03 11:39:12;;;;;;;33.83;19.08;;;;;;;;;;5082791;28;20446;-86
2021/03/03 11:41:38;;;;;;;36.55;17.80;;;;;;;;;;5089487;28;20040;-86
2021/03/03 11:44:05;;;;;;;31.02;17.05;;;;;;;;;;5098836;28;20035;-86
2021/03/03 11:46:31;;;;;;;35.60;20.15;;;;;;;;;;5083028;28;20386;-86
2021/03/03 11:48:58;;;;;;;33.08;18.48;;;;;;;;;;5082323;28;20028;-86
2021/03/03 11:51:24;;;;;;;37.33;20.08;;;;;;;;;;5079680;28;20056;-87
2021/03/03 11:53:50;;;;;;;40.05;20.33;;;;;;;;;;5097097;28;20055;-88
2021/03/03 11:56:20;;;;;;;37.70;19.92;;;;;;;;;;5083709;28;20028;-90
2021/03/03 11:58:46;;;;;;;38.35;21.83;;;;;;;;;;5080192;28;20077;-87
2021/03/03 12:01:12;;;;;;;34.70;16.75;;;;;;;;;;5080769;28;20044;-89
2021/03/03 12:03:38;;;;;;;36.10;20.45;;;;;;;;;;5080494;28;20032;-87
2021/03/03 12:06:04;;;;;;;34.80;18.58;;;;;;;;;;5082395;28;20042;-86
2021/03/03 12:08:31;;;;;;;37.28;21.73;;;;;;;;;;5083990;28;20058;-87
2021/03/03 12:10:57;;;;;;;35.83;20.55;;;;;;;;;;5098990;28;20038;-87
2021/03/03 12:13:23;;;;;;;38.58;21.10;;;;;;;;;;5081169;28;20142;-90
2021/03/03 12:15:50;;;;;;;30.73;19.27;;;;;;;;;;5097076;28;20442;-87
2021/03/03 12:18:16;;;;;;;31.95;18.42;;;;;;;;;;5097820;28;20024;-88
2021/03/03 12:20:42;;;;;;;35.58;19.00;;;;;;;;;;5081673;28;20028;-86
2021/03/03 12:23:08;;;;;;;30.92;18.75;;;;;;;;;;5079888;28;20032;-88
2021/03/03 12:25:34;;;;;;;30.50;18.30;;;;;;;;;;5077691;28;20031;-87
2021/03/03 12:28:03;;;;;;;31.85;17.98;;;;;;;;;;5093370;28;20028;-88
2021/03/03 12:30:29;;;;;;;38.55;18.55;;;;;;;;;;5077822;28;20032;-89
2021/03/03 12:32:55;;;;;;;30.85;17.65;;;;;;;;;;5090618;28;20030;-89
2021/03/03 12:35:22;;;;;;;33.22;17.88;;;;;;;;;;5080053;28;20020;-88
2021/03/03 12:37:53;;;;;;;38.05;17.13;;;;;;;;;;5095243;28;20044;-88
2021/03/03 12:40:20;;;;;;;28.40;15.43;;;;;;;;;;5092910;28;20036;-88
2021/03/03 12:42:46;;;;;;;35.53;15.75;;;;;;;;;;5087142;28;20047;-86
2021/03/03 12:45:15;;;;;;;25.33;14.48;;;;;;;;;;5080387;28;20031;-88
2021/03/03 12:47:41;;;;;;;;;;;;;;;;;;5096675;28;20600;-87
2021/03/03 12:50:10;;;;;;;25.98;17.52;;;;;;;;;;5099088;28;19912;-89
2021/03/03 12:52:36;;;;;;;38.72;18.27;;;;;;;;;;5083406;28;20043;-90
2021/03/03 12:55:03;;;;;;;36.25;16.20;;;;;;;;;;5082605;28;20093;-88
2021/03/03 12:57:29;;;;;;;23.75;15.95;;;;;;;;;;5094810;28;20070;-87
2021/03/03 13:00:04;;;;;;;27.17;16.63;;;;;;;;;;5094986;28;20086;-88
2021/03/03 13:02:30;;;;;;;24.65;16.58;;;;;;;;;;5092259;28;20044;-88
2021/03/03 13:04:56;;;;;;;41.58;20.90;;;;;;;;;;5079472;28;20173;-86
2021/03/03 13:07:22;;;;;;;39.63;25.77;;;;;;;;;;5087949;28;20475;-86
2021/03/03 13:09:49;;;;;;;46.60;24.85;;;;;;;;;;5100096;28;20020;-88
2021/03/03 13:12:15;;;;;;;36.65;25.10;;;;;;;;;;5088703;28;20037;-87
2021/03/03 13:14:41;;;;;;;41.03;26.85;;;;;;;;;;5083056;28;20032;-87
2021/03/03 13:17:07;;;;;;;35.33;23.63;;;;;;;;;;5088286;28;20031;-85
2021/03/03 13:19:33;;;;;;;40.72;24.38;;;;;;;;;;5101017;28;20028;-86
2021/03/03 13:21:59;;;;;;;43.15;24.63;;;;;;;;;;5100930;28;20036;-88
2021/03/03 13:24:26;;;;;;;37.10;24.33;;;;;;;;;;5085148;28;20384;-88
2021/03/03 13:26:52;;;;;;;38.67;24.20;;;;;;;;;;5099087;28;20027;-87
2021/03/03 13:29:28;;;;;;;36.22;23.65;;;;;;;;;;5086120;28;20044;-86
2021/03/03 13:32:00;;;;;;;41.28;25.38;;;;;;;;;;5099108;28;20021;-89
2021/03/03 13:34:27;;;;;;;43.83;24.33;;;;;;;;;;5081588;28;20028;-90
2021/03/03 13:36:53;;;;;;;43.55;26.27;;;;;;;;;;5081726;28;20024;-89
2021/03/03 13:39:20;;;;;;;40.10;24.65;;;;;;;;;;5081835;28;20070;-89
2021/03/03 13:41:46;;;;;;;40.15;21.83;;;;;;;;;;5098563;28;20043;-88
2021/03/03 13:44:13;;;;;;;39.83;23.00;;;;;;;;;;5076629;28;20020;-86
2021/03/03 13:46:39;;;;;;;33.55;23.15;;;;;;;;;;5091327;28;20351;-86
2021/03/03 13:49:05;;;;;;;36.28;23.25;;;;;;;;;;5099064;28;20031;-88
2021/03/03 13:51:31;;;;;;;32.00;20.67;;;;;;;;;;5081363;28;20028;-85
2021/03/03 13:53:58;;;;;;;32.60;21.00;;;;;;;;;;5099275;28;20024;-88
2021/03/03 13:56:26;;;;;;;40.33;22.40;;;;;;;;;;5083199;28;20487;-86
2021/03/03 13:58:52;;;;;;;33.00;21.38;;;;;;;;;;5093852;28;20038;-88
2021/03/03 14:01:19;;;;;;;35.38;21.88;;;;;;;;;;5101294;28;20032;-87
2021/03/03 14:03:45;;;;;;;42.00;23.20;;;;;;;;;;5100429;28;20030;-86
2021/03/03 14:06:11;;;;;;;33.20;22.48;;;;;;;;;;5082118;28;20028;-87
2021/03/03 14:08:37;;;;;;;32.97;21.95;;;;;;;;;;5087318;28;20055;-88
2021/03/03 14:11:05;;;;;;;33.15;20.55;;;;;;;;;;5085676;28;20081;-88
2021/03/03 14:13:31;;;;;;;44.83;22.38;;;;;;;;;;5075473;28;20168;-87
2021/03/03 14:15:57;;;;;;;33.72;20.95;;;;;;;;;;5094728;28;20032;-86
2021/03/03 14:18:24;;;;;;;41.95;23.83;;;;;;;;;;5085881;28;20024;-87
2021/03/03 14:20:50;;;;;;;30.98;20.50;;;;;;;;;;5100008;28;20036;-87
2021/03/03 14:23:16;;;;;;;41.47;21.42;;;;;;;;;;5101226;28;20035;-88
2021/03/03 14:25:42;;;;;;;32.17;19.77;;;;;;;;;;5103833;28;20078;-85
2021/03/03 14:28:09;;;;;;;34.97;20.75;;;;;;;;;;5080456;28;20032;-85
2021/03/03 14:30:35;;;;;;;33.85;21.77;;;;;;;;;;5083601;28;20039;-86
2021/03/03 14:33:01;;;;;;;38.22;20.15;;;;;;;;;;5087368;28;20043;-85
2021/03/03 14:35:27;;;;;;;32.50;19.90;;;;;;;;;;5088638;28;20032;-85